Emden Airport EDWE

Flugplatz Daten

Name: Emden Airport

Ident: EDWE

Lat: 53,39110947

Long: 7,227499962

Platzhöhe: 3 ft

IataCode: EME

City: Emden

Metar

2021/10/16 05:20
EDWE 160520Z AUTO 27004KT 9999 // OVC053/// 09/07 Q1020

Taf

Gewünschte Webcam nicht vorhanden? Dann fügen Sie eine hinzu. Sie wird dann so schnell wie möglich freigeschaltet
Url: Title: